sensor_id;sensor_type;location;lat;lon;timestamp;temperature;humidity
23283;DHT22;11810;51.178;3.878;2023-04-01T00:00:52;10.10;99.90
23283;DHT22;11810;51.178;3.878;2023-04-01T00:03:20;10.10;99.90
23283;DHT22;11810;51.178;3.878;2023-04-01T00:05:46;10.20;99.90
23283;DHT22;11810;51.178;3.878;2023-04-01T00:08:13;10.20;99.90
23283;DHT22;11810;51.178;3.878;2023-04-01T00:10:39;10.20;99.90
23283;DHT22;11810;51.178;3.878;2023-04-01T00:13:06;10.20;99.90
23283;DHT22;11810;51.178;3.878;2023-04-01T00:15:32;10.20;99.90
23283;DHT22;11810;51.178;3.878;2023-04-01T00:17:59;10.10;99.90
23283;DHT22;11810;51.178;3.878;2023-04-01T00:20:25;10.20;99.90
23283;DHT22;11810;51.178;3.878;2023-04-01T00:22:51;10.20;99.90
23283;DHT22;11810;51.178;3.878;2023-04-01T00:25:17;10.20;99.90
23283;DHT22;11810;51.178;3.878;2023-04-01T00:27:43;10.20;99.90
23283;DHT22;11810;51.178;3.878;2023-04-01T00:30:09;10.20;99.90
23283;DHT22;11810;51.178;3.878;2023-04-01T00:32:35;10.30;99.90
23283;DHT22;11810;51.178;3.878;2023-04-01T00:35:01;10.20;99.90
23283;DHT22;11810;51.178;3.878;2023-04-01T00:37:28;10.30;99.90
23283;DHT22;11810;51.178;3.878;2023-04-01T00:39:54;10.20;99.90
23283;DHT22;11810;51.178;3.878;2023-04-01T00:42:20;10.20;99.90
23283;DHT22;11810;51.178;3.878;2023-04-01T00:44:54;10.10;99.90
23283;DHT22;11810;51.178;3.878;2023-04-01T00:47:21;10.10;99.90
23283;DHT22;11810;51.178;3.878;2023-04-01T00:49:50;10.10;99.90
23283;DHT22;11810;51.178;3.878;2023-04-01T00:52:23;10.10;99.90
23283;DHT22;11810;51.178;3.878;2023-04-01T00:54:53;10.10;99.90
23283;DHT22;11810;51.178;3.878;2023-04-01T00:57:31;10.10;99.90
23283;DHT22;11810;51.178;3.878;2023-04-01T00:59:58;10.10;99.90
23283;DHT22;11810;51.178;3.878;2023-04-01T01:02:25;10.00;99.90
23283;DHT22;11810;51.178;3.878;2023-04-01T01:04:51;9.90;99.90
23283;DHT22;11810;51.178;3.878;2023-04-01T01:10:02;9.80;99.90
23283;DHT22;11810;51.178;3.878;2023-04-01T01:12:46;9.90;99.90
23283;DHT22;11810;51.178;3.878;2023-04-01T01:18:36;9.90;99.90
23283;DHT22;11810;51.178;3.878;2023-04-01T01:37:01;9.80;99.90
23283;DHT22;11810;51.178;3.878;2023-04-01T01:39:30;9.70;99.90
23283;DHT22;11810;51.178;3.878;2023-04-01T01:42:00;9.80;99.90
23283;DHT22;11810;51.178;3.878;2023-04-01T01:46:05;9.80;99.90
23283;DHT22;11810;51.178;3.878;2023-04-01T01:48:35;9.80;99.90
23283;DHT22;11810;51.178;3.878;2023-04-01T01:51:03;9.80;99.90
23283;DHT22;11810;51.178;3.878;2023-04-01T01:53:30;9.80;99.90
23283;DHT22;11810;51.178;3.878;2023-04-01T01:55:56;9.80;99.90
23283;DHT22;11810;51.178;3.878;2023-04-01T01:58:29;9.80;99.90
23283;DHT22;11810;51.178;3.878;2023-04-01T02:01:03;9.80;99.90
23283;DHT22;11810;51.178;3.878;2023-04-01T02:03:33;9.70;99.90
23283;DHT22;11810;51.178;3.878;2023-04-01T02:06:04;9.70;99.90
23283;DHT22;11810;51.178;3.878;2023-04-01T02:08:44;9.70;99.90
23283;DHT22;11810;51.178;3.878;2023-04-01T02:11:13;9.70;99.90
23283;DHT22;11810;51.178;3.878;2023-04-01T02:13:55;9.70;99.90
23283;DHT22;11810;51.178;3.878;2023-04-01T02:19:16;9.80;99.90
23283;DHT22;11810;51.178;3.878;2023-04-01T02:21:50;9.70;99.90
23283;DHT22;11810;51.178;3.878;2023-04-01T02:24:19;9.70;99.90
23283;DHT22;11810;51.178;3.878;2023-04-01T02:26:50;9.70;99.90
23283;DHT22;11810;51.178;3.878;2023-04-01T02:29:21;9.70;99.90
23283;DHT22;11810;51.178;3.878;2023-04-01T02:31:48;9.70;99.90
23283;DHT22;11810;51.178;3.878;2023-04-01T02:34:15;9.80;99.90
23283;DHT22;11810;51.178;3.878;2023-04-01T02:36:41;9.80;99.90
23283;DHT22;11810;51.178;3.878;2023-04-01T02:39:08;9.80;99.90
23283;DHT22;11810;51.178;3.878;2023-04-01T02:41:41;9.80;99.90
23283;DHT22;11810;51.178;3.878;2023-04-01T02:44:08;9.90;99.90
23283;DHT22;11810;51.178;3.878;2023-04-01T02:46:34;9.70;99.90
23283;DHT22;11810;51.178;3.878;2023-04-01T02:49:00;9.70;99.90
23283;DHT22;11810;51.178;3.878;2023-04-01T02:51:26;9.70;99.90
23283;DHT22;11810;51.178;3.878;2023-04-01T02:53:52;9.70;99.90
23283;DHT22;11810;51.178;3.878;2023-04-01T02:56:18;9.70;99.90
23283;DHT22;11810;51.178;3.878;2023-04-01T02:58:46;9.80;99.90
23283;DHT22;11810;51.178;3.878;2023-04-01T03:01:12;9.80;99.90
23283;DHT22;11810;51.178;3.878;2023-04-01T03:03:38;9.80;99.90
23283;DHT22;11810;51.178;3.878;2023-04-01T03:06:12;9.70;99.90
23283;DHT22;11810;51.178;3.878;2023-04-01T03:08:38;9.60;99.90
23283;DHT22;11810;51.178;3.878;2023-04-01T03:11:04;9.60;99.90
23283;DHT22;11810;51.178;3.878;2023-04-01T03:13:31;9.60;99.90
23283;DHT22;11810;51.178;3.878;2023-04-01T03:15:57;9.70;99.90
23283;DHT22;11810;51.178;3.878;2023-04-01T03:18:23;9.70;99.90
23283;DHT22;11810;51.178;3.878;2023-04-01T03:20:49;9.70;99.90
23283;DHT22;11810;51.178;3.878;2023-04-01T03:23:16;9.70;99.90
23283;DHT22;11810;51.178;3.878;2023-04-01T03:25:47;9.60;99.90
23283;DHT22;11810;51.178;3.878;2023-04-01T03:28:13;9.60;99.90
23283;DHT22;11810;51.178;3.878;2023-04-01T03:30:39;9.50;99.90
23283;DHT22;11810;51.178;3.878;2023-04-01T03:33:05;9.60;99.90
23283;DHT22;11810;51.178;3.878;2023-04-01T03:35:32;9.60;99.90
23283;DHT22;11810;51.178;3.878;2023-04-01T03:37:58;9.50;99.90
23283;DHT22;11810;51.178;3.878;2023-04-01T03:40:24;9.60;99.90
23283;DHT22;11810;51.178;3.878;2023-04-01T03:42:51;9.70;99.90
23283;DHT22;11810;51.178;3.878;2023-04-01T03:45:18;9.70;99.90
23283;DHT22;11810;51.178;3.878;2023-04-01T03:47:44;9.60;99.90
23283;DHT22;11810;51.178;3.878;2023-04-01T03:50:10;9.60;99.90
23283;DHT22;11810;51.178;3.878;2023-04-01T03:52:36;9.60;99.90
23283;DHT22;11810;51.178;3.878;2023-04-01T03:55:02;9.50;99.90
23283;DHT22;11810;51.178;3.878;2023-04-01T03:57:31;9.60;99.90
23283;DHT22;11810;51.178;3.878;2023-04-01T03:59:57;9.60;99.90
23283;DHT22;11810;51.178;3.878;2023-04-01T04:02:23;9.60;99.90
23283;DHT22;11810;51.178;3.878;2023-04-01T04:04:48;9.60;99.90
23283;DHT22;11810;51.178;3.878;2023-04-01T04:07:14;9.60;99.90
23283;DHT22;11810;51.178;3.878;2023-04-01T04:09:40;9.50;99.90
23283;DHT22;11810;51.178;3.878;2023-04-01T04:12:06;9.60;99.90
23283;DHT22;11810;51.178;3.878;2023-04-01T04:14:32;9.60;99.90
23283;DHT22;11810;51.178;3.878;2023-04-01T04:16:58;9.70;99.90
23283;DHT22;11810;51.178;3.878;2023-04-01T04:19:24;9.70;99.90
23283;DHT22;11810;51.178;3.878;2023-04-01T04:21:50;9.70;99.90
23283;DHT22;11810;51.178;3.878;2023-04-01T04:24:16;9.70;99.90
23283;DHT22;11810;51.178;3.878;2023-04-01T04:26:42;9.70;99.90
23283;DHT22;11810;51.178;3.878;2023-04-01T04:29:08;9.80;99.90
23283;DHT22;11810;51.178;3.878;2023-04-01T04:31:34;9.70;99.90
23283;DHT22;11810;51.178;3.878;2023-04-01T04:34:00;9.70;99.90
23283;DHT22;11810;51.178;3.878;2023-04-01T04:36:27;9.60;99.90
23283;DHT22;11810;51.178;3.878;2023-04-01T04:38:53;9.60;99.90
23283;DHT22;11810;51.178;3.878;2023-04-01T04:41:19;9.70;99.90
23283;DHT22;11810;51.178;3.878;2023-04-01T04:43:53;9.60;99.90
23283;DHT22;11810;51.178;3.878;2023-04-01T04:46:20;9.60;99.90
23283;DHT22;11810;51.178;3.878;2023-04-01T04:48:46;9.60;99.90
23283;DHT22;11810;51.178;3.878;2023-04-01T04:51:17;9.60;99.90
23283;DHT22;11810;51.178;3.878;2023-04-01T04:53:44;9.60;99.90
23283;DHT22;11810;51.178;3.878;2023-04-01T04:56:10;9.60;99.90
23283;DHT22;11810;51.178;3.878;2023-04-01T04:58:37;9.60;99.90
23283;DHT22;11810;51.178;3.878;2023-04-01T05:01:10;9.50;99.90
23283;DHT22;11810;51.178;3.878;2023-04-01T05:03:37;9.50;99.90
23283;DHT22;11810;51.178;3.878;2023-04-01T05:07:42;9.60;99.90
23283;DHT22;11810;51.178;3.878;2023-04-01T05:10:08;9.60;99.90
23283;DHT22;11810;51.178;3.878;2023-04-01T05:12:35;9.50;99.90
23283;DHT22;11810;51.178;3.878;2023-04-01T05:15:08;9.50;99.90
23283;DHT22;11810;51.178;3.878;2023-04-01T05:17:34;9.50;99.90
23283;DHT22;11810;51.178;3.878;2023-04-01T05:20:00;9.40;99.90
23283;DHT22;11810;51.178;3.878;2023-04-01T05:22:26;9.40;99.90
23283;DHT22;11810;51.178;3.878;2023-04-01T05:24:52;9.30;99.90
23283;DHT22;11810;51.178;3.878;2023-04-01T05:27:18;9.40;99.90
23283;DHT22;11810;51.178;3.878;2023-04-01T05:29:44;9.40;99.90
23283;DHT22;11810;51.178;3.878;2023-04-01T05:32:10;9.30;99.90
23283;DHT22;11810;51.178;3.878;2023-04-01T05:34:36;9.30;99.90
23283;DHT22;11810;51.178;3.878;2023-04-01T05:37:02;9.30;99.90
23283;DHT22;11810;51.178;3.878;2023-04-01T05:39:28;9.30;99.90
23283;DHT22;11810;51.178;3.878;2023-04-01T05:41:54;9.40;99.90
23283;DHT22;11810;51.178;3.878;2023-04-01T05:44:20;9.40;99.90
23283;DHT22;11810;51.178;3.878;2023-04-01T05:46:46;9.40;99.90
23283;DHT22;11810;51.178;3.878;2023-04-01T05:49:12;9.40;99.90
23283;DHT22;11810;51.178;3.878;2023-04-01T05:51:38;9.30;99.90
23283;DHT22;11810;51.178;3.878;2023-04-01T05:54:05;9.30;99.90
23283;DHT22;11810;51.178;3.878;2023-04-01T05:56:31;9.30;99.90
23283;DHT22;11810;51.178;3.878;2023-04-01T05:58:57;9.20;99.90
23283;DHT22;11810;51.178;3.878;2023-04-01T06:01:23;9.30;99.90
23283;DHT22;11810;51.178;3.878;2023-04-01T06:03:49;9.40;99.90
23283;DHT22;11810;51.178;3.878;2023-04-01T06:06:29;9.30;99.90
23283;DHT22;11810;51.178;3.878;2023-04-01T06:08:57;9.30;99.90
23283;DHT22;11810;51.178;3.878;2023-04-01T06:16:40;9.30;99.90
23283;DHT22;11810;51.178;3.878;2023-04-01T06:33:33;9.40;99.90
23283;DHT22;11810;51.178;3.878;2023-04-01T06:39:11;9.40;99.90
23283;DHT22;11810;51.178;3.878;2023-04-01T06:47:36;9.50;99.90
23283;DHT22;11810;51.178;3.878;2023-04-01T06:53:17;9.50;99.90
23283;DHT22;11810;51.178;3.878;2023-04-01T06:56:00;9.60;99.90
23283;DHT22;11810;51.178;3.878;2023-04-01T06:59:10;9.60;99.90
23283;DHT22;11810;51.178;3.878;2023-04-01T07:01:34;9.60;99.90
23283;DHT22;11810;51.178;3.878;2023-04-01T07:04:32;9.50;99.90
23283;DHT22;11810;51.178;3.878;2023-04-01T07:06:59;9.60;99.90
23283;DHT22;11810;51.178;3.878;2023-04-01T07:09:37;9.60;99.90
23283;DHT22;11810;51.178;3.878;2023-04-01T07:12:46;9.60;99.90
23283;DHT22;11810;51.178;3.878;2023-04-01T07:15:39;9.50;99.90
23283;DHT22;11810;51.178;3.878;2023-04-01T07:18:15;9.50;99.90
23283;DHT22;11810;51.178;3.878;2023-04-01T07:20:42;9.50;99.90
23283;DHT22;11810;51.178;3.878;2023-04-01T07:23:21;9.50;99.90
23283;DHT22;11810;51.178;3.878;2023-04-01T07:25:55;9.50;99.90
23283;DHT22;11810;51.178;3.878;2023-04-01T07:28:24;9.50;99.90
23283;DHT22;11810;51.178;3.878;2023-04-01T07:30:58;9.50;99.90
23283;DHT22;11810;51.178;3.878;2023-04-01T07:33:38;9.50;99.90
23283;DHT22;11810;51.178;3.878;2023-04-01T07:36:20;9.50;99.90
23283;DHT22;11810;51.178;3.878;2023-04-01T07:44:28;9.70;99.90
23283;DHT22;11810;51.178;3.878;2023-04-01T07:54:58;9.80;99.90
23283;DHT22;11810;51.178;3.878;2023-04-01T08:06:32;10.10;99.90
23283;DHT22;11810;51.178;3.878;2023-04-01T08:20:38;10.00;99.90
23283;DHT22;11810;51.178;3.878;2023-04-01T08:23:44;10.10;99.90
23283;DHT22;11810;51.178;3.878;2023-04-01T08:28:54;10.20;99.90
23283;DHT22;11810;51.178;3.878;2023-04-01T08:31:24;10.20;99.90
23283;DHT22;11810;51.178;3.878;2023-04-01T08:33:54;10.20;99.90
23283;DHT22;11810;51.178;3.878;2023-04-01T08:36:34;10.20;99.90
23283;DHT22;11810;51.178;3.878;2023-04-01T08:44:50;10.20;99.90
23283;DHT22;11810;51.178;3.878;2023-04-01T08:53:09;10.20;99.90
23283;DHT22;11810;51.178;3.878;2023-04-01T09:01:38;10.60;99.90
23283;DHT22;11810;51.178;3.878;2023-04-01T09:04:35;10.50;99.90
23283;DHT22;11810;51.178;3.878;2023-04-01T09:19:06;10.30;99.90
23283;DHT22;11810;51.178;3.878;2023-04-01T09:27:29;10.60;99.90
23283;DHT22;11810;51.178;3.878;2023-04-01T09:32:59;10.50;99.90
23283;DHT22;11810;51.178;3.878;2023-04-01T09:49:13;10.40;99.90
23283;DHT22;11810;51.178;3.878;2023-04-01T10:06:03;10.50;99.90
23283;DHT22;11810;51.178;3.878;2023-04-01T10:23:15;10.40;99.90
23283;DHT22;11810;51.178;3.878;2023-04-01T10:34:05;10.70;99.90
23283;DHT22;11810;51.178;3.878;2023-04-01T10:36:58;10.80;99.90
23283;DHT22;11810;51.178;3.878;2023-04-01T10:45:36;10.70;99.90
23283;DHT22;11810;51.178;3.878;2023-04-01T10:53:47;10.90;99.90
23283;DHT22;11810;51.178;3.878;2023-04-01T10:59:36;10.80;99.90
23283;DHT22;11810;51.178;3.878;2023-04-01T11:21:56;10.70;99.90
23283;DHT22;11810;51.178;3.878;2023-04-01T11:36:00;11.00;99.90
23283;DHT22;11810;51.178;3.878;2023-04-01T11:44:23;10.90;99.90
23283;DHT22;11810;51.178;3.878;2023-04-01T11:49:53;10.90;99.90
23283;DHT22;11810;51.178;3.878;2023-04-01T11:57:46;10.90;99.90
23283;DHT22;11810;51.178;3.878;2023-04-01T12:00:22;10.70;99.90
23283;DHT22;11810;51.178;3.878;2023-04-01T12:08:57;10.70;99.90
23283;DHT22;11810;51.178;3.878;2023-04-01T12:14:39;10.90;99.90
23283;DHT22;11810;51.178;3.878;2023-04-01T12:17:10;10.90;99.90
23283;DHT22;11810;51.178;3.878;2023-04-01T12:19:53;10.80;99.90
23283;DHT22;11810;51.178;3.878;2023-04-01T12:22:55;10.80;99.90
23283;DHT22;11810;51.178;3.878;2023-04-01T12:31:18;10.90;99.90
23283;DHT22;11810;51.178;3.878;2023-04-01T12:33:51;11.00;99.90
23283;DHT22;11810;51.178;3.878;2023-04-01T12:36:43;11.10;99.90
23283;DHT22;11810;51.178;3.878;2023-04-01T12:42:30;11.30;99.90
23283;DHT22;11810;51.178;3.878;2023-04-01T12:46:01;11.20;99.90
23283;DHT22;11810;51.178;3.878;2023-04-01T12:48:27;11.20;99.90
23283;DHT22;11810;51.178;3.878;2023-04-01T12:59:19;11.10;99.90
23283;DHT22;11810;51.178;3.878;2023-04-01T13:04:55;11.20;99.90
23283;DHT22;11810;51.178;3.878;2023-04-01T13:07:28;11.00;99.90
23283;DHT22;11810;51.178;3.878;2023-04-01T13:15:30;11.00;99.90
23283;DHT22;11810;51.178;3.878;2023-04-01T13:23:22;10.90;99.90
23283;DHT22;11810;51.178;3.878;2023-04-01T13:25:53;10.70;99.90
23283;DHT22;11810;51.178;3.878;2023-04-01T13:31:19;10.70;99.90
23283;DHT22;11810;51.178;3.878;2023-04-01T13:43:08;10.50;99.90
23283;DHT22;11810;51.178;3.878;2023-04-01T13:57:16;10.40;99.90
23283;DHT22;11810;51.178;3.878;2023-04-01T14:07:58;10.70;99.90
23283;DHT22;11810;51.178;3.878;2023-04-01T14:13:34;10.80;99.90
23283;DHT22;11810;51.178;3.878;2023-04-01T14:19:03;10.90;99.90
23283;DHT22;11810;51.178;3.878;2023-04-01T14:41:12;11.20;99.90
23283;DHT22;11810;51.178;3.878;2023-04-01T14:44:23;11.20;99.90
23283;DHT22;11810;51.178;3.878;2023-04-01T14:47:08;11.10;99.90
23283;DHT22;11810;51.178;3.878;2023-04-01T14:49:46;11.00;99.90
23283;DHT22;11810;51.178;3.878;2023-04-01T14:52:23;10.90;99.90
23283;DHT22;11810;51.178;3.878;2023-04-01T14:54:51;11.00;99.90
23283;DHT22;11810;51.178;3.878;2023-04-01T14:57:31;10.80;99.90
23283;DHT22;11810;51.178;3.878;2023-04-01T15:00:18;10.60;99.90
23283;DHT22;11810;51.178;3.878;2023-04-01T15:02:56;10.70;99.90
23283;DHT22;11810;51.178;3.878;2023-04-01T15:05:52;10.60;99.90
23283;DHT22;11810;51.178;3.878;2023-04-01T15:08:27;10.70;99.90
23283;DHT22;11810;51.178;3.878;2023-04-01T15:11:15;10.70;99.90
23283;DHT22;11810;51.178;3.878;2023-04-01T15:14:10;10.80;99.90
23283;DHT22;11810;51.178;3.878;2023-04-01T15:16:55;10.90;99.90
23283;DHT22;11810;51.178;3.878;2023-04-01T15:25:19;10.60;99.90
23283;DHT22;11810;51.178;3.878;2023-04-01T15:35:33;10.60;99.90
23283;DHT22;11810;51.178;3.878;2023-04-01T15:38:24;10.60;99.90
23283;DHT22;11810;51.178;3.878;2023-04-01T15:43:46;10.40;99.90
23283;DHT22;11810;51.178;3.878;2023-04-01T15:46:41;10.40;99.90
23283;DHT22;11810;51.178;3.878;2023-04-01T15:49:39;10.40;99.90
23283;DHT22;11810;51.178;3.878;2023-04-01T15:57:47;10.50;99.90
23283;DHT22;11810;51.178;3.878;2023-04-01T16:03:43;10.40;99.90
23283;DHT22;11810;51.178;3.878;2023-04-01T16:20:19;10.40;99.90
23283;DHT22;11810;51.178;3.878;2023-04-01T16:23:00;10.40;99.90
23283;DHT22;11810;51.178;3.878;2023-04-01T16:25:39;10.40;99.90
23283;DHT22;11810;51.178;3.878;2023-04-01T16:28:30;10.30;99.90
23283;DHT22;11810;51.178;3.878;2023-04-01T16:30:59;10.30;99.90
23283;DHT22;11810;51.178;3.878;2023-04-01T16:33:51;10.40;99.90
23283;DHT22;11810;51.178;3.878;2023-04-01T16:42:34;10.50;99.90
23283;DHT22;11810;51.178;3.878;2023-04-01T16:47:50;10.40;99.90
23283;DHT22;11810;51.178;3.878;2023-04-01T16:50:30;10.40;99.90
23283;DHT22;11810;51.178;3.878;2023-04-01T16:58:25;10.50;99.90
23283;DHT22;11810;51.178;3.878;2023-04-01T17:00:58;10.60;99.90
23283;DHT22;11810;51.178;3.878;2023-04-01T17:03:40;10.40;99.90
23283;DHT22;11810;51.178;3.878;2023-04-01T17:06:31;10.30;99.90
23283;DHT22;11810;51.178;3.878;2023-04-01T17:10:55;10.30;99.90
23283;DHT22;11810;51.178;3.878;2023-04-01T17:13:26;10.20;99.90
23283;DHT22;11810;51.178;3.878;2023-04-01T17:16:04;10.20;99.90
23283;DHT22;11810;51.178;3.878;2023-04-01T17:23:34;10.10;99.90
23283;DHT22;11810;51.178;3.878;2023-04-01T17:26:42;10.00;99.90
23283;DHT22;11810;51.178;3.878;2023-04-01T17:35:16;10.00;99.90
23283;DHT22;11810;51.178;3.878;2023-04-01T17:38:09;10.10;99.90
23283;DHT22;11810;51.178;3.878;2023-04-01T17:49:01;9.90;99.90
23283;DHT22;11810;51.178;3.878;2023-04-01T17:51:45;9.90;99.90
23283;DHT22;11810;51.178;3.878;2023-04-01T17:54:19;9.90;99.90
23283;DHT22;11810;51.178;3.878;2023-04-01T18:02:37;9.70;99.90
23283;DHT22;11810;51.178;3.878;2023-04-01T18:13:34;9.70;99.90
23283;DHT22;11810;51.178;3.878;2023-04-01T18:22:07;9.70;99.90
23283;DHT22;11810;51.178;3.878;2023-04-01T18:26:39;9.80;99.90
23283;DHT22;11810;51.178;3.878;2023-04-01T18:31:47;9.70;99.90
23283;DHT22;11810;51.178;3.878;2023-04-01T18:37:09;9.80;99.90
23283;DHT22;11810;51.178;3.878;2023-04-01T18:39:42;9.70;99.90
23283;DHT22;11810;51.178;3.878;2023-04-01T18:42:33;9.60;99.90
23283;DHT22;11810;51.178;3.878;2023-04-01T18:48:09;9.60;99.90
23283;DHT22;11810;51.178;3.878;2023-04-01T18:50:57;9.60;99.90
23283;DHT22;11810;51.178;3.878;2023-04-01T18:53:49;9.70;99.90
23283;DHT22;11810;51.178;3.878;2023-04-01T18:56:24;9.70;99.90
23283;DHT22;11810;51.178;3.878;2023-04-01T19:05:09;9.90;99.90
23283;DHT22;11810;51.178;3.878;2023-04-01T19:26:32;9.70;99.90
23283;DHT22;11810;51.178;3.878;2023-04-01T19:34:57;9.50;99.90
23283;DHT22;11810;51.178;3.878;2023-04-01T19:39:48;9.70;99.90
23283;DHT22;11810;51.178;3.878;2023-04-01T19:56:14;9.70;99.90
23283;DHT22;11810;51.178;3.878;2023-04-01T19:58:50;9.80;99.90
23283;DHT22;11810;51.178;3.878;2023-04-01T20:03:55;9.80;99.90
23283;DHT22;11810;51.178;3.878;2023-04-01T20:22:00;9.80;99.90
23283;DHT22;11810;51.178;3.878;2023-04-01T20:24:43;9.90;99.90
23283;DHT22;11810;51.178;3.878;2023-04-01T20:30:01;9.90;99.90
23283;DHT22;11810;51.178;3.878;2023-04-01T20:32:50;9.90;99.90
23283;DHT22;11810;51.178;3.878;2023-04-01T20:36:26;10.00;99.90
23283;DHT22;11810;51.178;3.878;2023-04-01T20:41:32;9.90;99.90
23283;DHT22;11810;51.178;3.878;2023-04-01T20:44:13;9.90;99.90
23283;DHT22;11810;51.178;3.878;2023-04-01T20:52:24;9.80;99.90
23283;DHT22;11810;51.178;3.878;2023-04-01T21:00:11;9.90;99.90
23283;DHT22;11810;51.178;3.878;2023-04-01T21:03:03;10.00;99.90
23283;DHT22;11810;51.178;3.878;2023-04-01T21:08:47;9.70;99.90
23283;DHT22;11810;51.178;3.878;2023-04-01T21:14:46;9.80;99.90
23283;DHT22;11810;51.178;3.878;2023-04-01T21:53:03;9.60;99.90
23283;DHT22;11810;51.178;3.878;2023-04-01T21:58:39;9.60;99.90
23283;DHT22;11810;51.178;3.878;2023-04-01T22:06:38;9.60;99.90
23283;DHT22;11810;51.178;3.878;2023-04-01T22:09:29;9.70;99.90
23283;DHT22;11810;51.178;3.878;2023-04-01T22:12:02;9.70;99.90
23283;DHT22;11810;51.178;3.878;2023-04-01T22:14:51;9.80;99.90
23283;DHT22;11810;51.178;3.878;2023-04-01T22:28:54;9.70;99.90
23283;DHT22;11810;51.178;3.878;2023-04-01T22:31:31;9.80;99.90
23283;DHT22;11810;51.178;3.878;2023-04-01T22:47:28;9.70;99.90
23283;DHT22;11810;51.178;3.878;2023-04-01T22:50:04;9.60;99.90
23283;DHT22;11810;51.178;3.878;2023-04-01T22:52:46;9.80;99.90
23283;DHT22;11810;51.178;3.878;2023-04-01T23:03:19;9.70;99.90
23283;DHT22;11810;51.178;3.878;2023-04-01T23:11:05;9.60;99.90
23283;DHT22;11810;51.178;3.878;2023-04-01T23:13:38;9.60;99.90
23283;DHT22;11810;51.178;3.878;2023-04-01T23:16:06;9.60;99.90
23283;DHT22;11810;51.178;3.878;2023-04-01T23:29:21;9.70;99.90
23283;DHT22;11810;51.178;3.878;2023-04-01T23:32:01;9.70;99.90
23283;DHT22;11810;51.178;3.878;2023-04-01T23:34:30;9.60;99.90
23283;DHT22;11810;51.178;3.878;2023-04-01T23:37:00;9.50;99.90
23283;DHT22;11810;51.178;3.878;2023-04-01T23:39:36;9.50;99.90
23283;DHT22;11810;51.178;3.878;2023-04-01T23:42:13;9.50;99.90
23283;DHT22;11810;51.178;3.878;2023-04-01T23:44:40;9.50;99.90
23283;DHT22;11810;51.178;3.878;2023-04-01T23:47:08;9.50;99.90
23283;DHT22;11810;51.178;3.878;2023-04-01T23:49:41;9.50;99.90
23283;DHT22;11810;51.178;3.878;2023-04-01T23:52:30;9.60;99.90
23283;DHT22;11810;51.178;3.878;2023-04-01T23:55:12;9.70;99.90
23283;DHT22;11810;51.178;3.878;2023-04-01T23:57:38;9.50;99.90
